createdAt,value
2018-07-03T00:00:32.383Z,101740.66
2018-07-03T00:06:06.804Z,101739.42
2018-07-03T00:08:35.983Z,101734.69
2018-07-03T00:11:05.346Z,101734.77
2018-07-03T00:13:34.524Z,101730.41
2018-07-03T00:16:03.646Z,101730.48
2018-07-03T00:18:33.323Z,101737.57
2018-07-03T00:21:02.473Z,101736.67
2018-07-03T00:23:31.761Z,101732.32
2018-07-03T00:26:00.899Z,101730.33
2018-07-03T00:28:30.023Z,101730.95
2018-07-03T00:30:58.835Z,101730.56
2018-07-03T00:33:28.522Z,101726.36
2018-07-03T00:35:57.999Z,101722.98
2018-07-03T00:38:27.286Z,101721.52
2018-07-03T00:40:56.389Z,101722.81
2018-07-03T00:43:25.417Z,101724.00
2018-07-03T00:45:55.049Z,101723.75
2018-07-03T00:48:24.045Z,101724.22
2018-07-03T00:50:53.403Z,101723.81
2018-07-03T00:53:22.933Z,101718.75
2018-07-03T00:55:52.056Z,101719.36
2018-07-03T00:58:21.069Z,101714.06
2018-07-03T01:00:50.744Z,101715.97
2018-07-03T01:03:19.497Z,101707.84
2018-07-03T01:05:48.590Z,101708.74
2018-07-03T01:08:17.383Z,101707.45
2018-07-03T01:10:46.401Z,101707.47
2018-07-03T01:13:15.985Z,101709.30
2018-07-03T01:15:44.758Z,101705.11
2018-07-03T01:18:13.652Z,101710.20
2018-07-03T01:20:43.985Z,101706.47
2018-07-03T01:23:14.214Z,101708.63
2018-07-03T01:25:43.776Z,101708.09
2018-07-03T01:28:13.862Z,101714.30
2018-07-03T01:30:44.152Z,101711.03
2018-07-03T01:33:13.702Z,101706.55
2018-07-03T01:35:42.514Z,101695.55
2018-07-03T01:38:11.539Z,101694.66
2018-07-03T01:40:40.571Z,101698.44
2018-07-03T01:43:09.320Z,101699.48
2018-07-03T01:45:38.135Z,101692.73
2018-07-03T01:48:07.253Z,101697.39
2018-07-03T01:50:36.599Z,101696.83
2018-07-03T01:53:06.075Z,101697.39
2018-07-03T01:55:35.098Z,101699.48
2018-07-03T01:58:04.083Z,101703.11
2018-07-03T02:00:33.220Z,101697.64
2018-07-03T02:03:02.334Z,101699.02
2018-07-03T02:05:31.576Z,101696.28
2018-07-03T02:08:00.607Z,101688.56
2018-07-03T02:10:29.710Z,101689.06
2018-07-03T02:13:04.666Z,101685.61
2018-07-03T02:15:33.451Z,101695.05
2018-07-03T02:18:02.548Z,101685.19
2018-07-03T02:20:31.858Z,101681.84
2018-07-03T02:23:00.697Z,101675.45
2018-07-03T02:25:30.060Z,101671.67
2018-07-03T02:27:59.215Z,101673.23
2018-07-03T02:30:28.034Z,101668.72
2018-07-03T02:32:57.359Z,101675.86
2018-07-03T02:35:26.513Z,101670.47
2018-07-03T02:37:55.564Z,101668.06
2018-07-03T02:40:24.325Z,101669.96
2018-07-03T02:43:07.319Z,101672.59
2018-07-03T02:45:37.038Z,101674.34
2018-07-03T02:48:06.139Z,101674.52
2018-07-03T02:50:34.909Z,101681.52
2018-07-03T02:53:04.442Z,101681.89
2018-07-03T02:55:33.172Z,101685.53
2018-07-03T02:58:02.165Z,101681.64
2018-07-03T03:00:31.281Z,101685.08
2018-07-03T03:03:05.378Z,101682.41
2018-07-03T03:05:34.540Z,101677.73
2018-07-03T03:08:03.526Z,101673.89
2018-07-03T03:10:32.580Z,101675.48
2018-07-03T03:13:02.034Z,101669.28
2018-07-03T03:15:31.074Z,101672.09
2018-07-03T03:17:59.816Z,101672.45
2018-07-03T03:20:29.174Z,101669.60
2018-07-03T03:22:58.584Z,101664.59
2018-07-03T03:25:27.731Z,101665.39
2018-07-03T03:27:56.516Z,101655.59
2018-07-03T03:30:26.116Z,101657.39
2018-07-03T03:32:55.519Z,101649.15
2018-07-03T03:35:24.582Z,101652.12
2018-07-03T03:37:53.359Z,101652.61
2018-07-03T03:40:22.481Z,101656.64
2018-07-03T03:43:13.728Z,101654.58
2018-07-03T03:45:43.417Z,101651.24
2018-07-03T03:48:12.494Z,101647.47
2018-07-03T03:50:41.291Z,101644.96
2018-07-03T03:53:10.268Z,101650.03
2018-07-03T03:55:39.034Z,101654.13
2018-07-03T03:58:08.455Z,101655.81
2018-07-03T04:00:37.200Z,101659.84
2018-07-03T04:03:06.332Z,101663.45
2018-07-03T04:05:35.433Z,101662.09
2018-07-03T04:08:04.283Z,101665.30
2018-07-03T04:10:33.331Z,101667.96
2018-07-03T04:13:02.333Z,101669.20
2018-07-03T04:15:31.421Z,101672.66
2018-07-03T04:18:00.672Z,101668.02
2018-07-03T04:20:29.789Z,101673.50
2018-07-03T04:22:58.672Z,101673.38
2018-07-03T04:25:28.039Z,101668.48
2018-07-03T04:27:56.925Z,101668.96
2018-07-03T04:30:25.759Z,101663.56
2018-07-03T04:32:55.077Z,101670.45
2018-07-03T04:35:24.087Z,101665.00
2018-07-03T04:37:53.145Z,101668.36
2018-07-03T04:40:22.324Z,101669.92
2018-07-03T04:42:51.142Z,101664.71
2018-07-03T04:45:20.561Z,101665.44
2018-07-03T04:47:49.363Z,101665.57
2018-07-03T04:50:18.202Z,101671.03
2018-07-03T04:52:47.279Z,101670.53
2018-07-03T04:55:16.484Z,101667.32
2018-07-03T04:57:45.572Z,101671.28
2018-07-03T05:00:14.371Z,101673.49
2018-07-03T05:02:43.319Z,101674.34
2018-07-03T05:05:12.119Z,101672.16
2018-07-03T05:07:41.388Z,101675.55
2018-07-03T05:10:10.876Z,101677.24
2018-07-03T05:12:39.703Z,101675.81
2018-07-03T05:15:08.968Z,101679.55
2018-07-03T05:17:37.829Z,101683.17
2018-07-03T05:20:07.091Z,101680.84
2018-07-03T05:22:36.058Z,101679.91
2018-07-03T05:25:05.114Z,101683.61
2018-07-03T05:27:34.173Z,101686.27
2018-07-03T05:30:02.946Z,101695.98
2018-07-03T05:32:31.785Z,101690.13
2018-07-03T05:35:00.560Z,101699.22
2018-07-03T05:37:29.799Z,101697.30
2018-07-03T05:39:59.116Z,101701.88
2018-07-03T05:42:28.185Z,101703.02
2018-07-03T05:44:57.296Z,101708.09
2018-07-03T05:47:26.110Z,101704.56
2018-07-03T05:49:55.398Z,101708.68
2018-07-03T05:52:24.765Z,101711.02
2018-07-03T05:54:53.931Z,101703.12
2018-07-03T05:57:23.586Z,101708.47
2018-07-03T05:59:52.437Z,101701.80
2018-07-03T06:02:21.866Z,101709.35
2018-07-03T06:04:52.347Z,101710.02
2018-07-03T06:07:21.465Z,101711.77
2018-07-03T06:09:50.903Z,101712.82
2018-07-03T06:12:19.901Z,101718.52
2018-07-03T06:14:49.073Z,101722.88
2018-07-03T06:17:18.109Z,101729.44
2018-07-03T06:19:47.413Z,101724.16
2018-07-03T06:22:16.842Z,101724.27
2018-07-03T06:24:45.673Z,101723.86
2018-07-03T06:27:14.543Z,101715.41
2018-07-03T06:29:43.389Z,101715.41
2018-07-03T06:32:12.673Z,101709.90
2018-07-03T06:34:41.921Z,101713.89
2018-07-03T06:37:11.035Z,101709.03
2018-07-03T06:39:39.893Z,101713.80
2018-07-03T06:42:09.217Z,101715.48
2018-07-03T06:44:38.075Z,101709.19
2018-07-03T06:47:07.901Z,101715.45
2018-07-03T06:49:36.743Z,101715.30
2018-07-03T06:52:05.763Z,101713.99
2018-07-03T06:54:34.568Z,101722.19
2018-07-03T06:57:03.438Z,101721.09
2018-07-03T06:59:32.976Z,101719.53
2018-07-03T07:02:01.857Z,101718.87
2018-07-03T07:04:31.499Z,101718.87
2018-07-03T07:07:00.648Z,101717.25
2018-07-03T07:09:30.343Z,101709.33
2018-07-03T07:11:59.195Z,101718.63
2018-07-03T07:14:28.668Z,101718.04
2018-07-03T07:16:57.816Z,101717.34
2018-07-03T07:19:26.750Z,101716.98
2018-07-03T07:21:56.062Z,101712.92
2018-07-03T07:24:24.846Z,101707.29
2018-07-03T07:26:54.545Z,101710.88
2018-07-03T07:29:23.433Z,101708.44
2018-07-03T07:31:52.589Z,101708.35
2018-07-03T07:34:21.785Z,101706.41
2018-07-03T07:36:50.527Z,101704.87
2018-07-03T07:39:19.664Z,101712.89
2018-07-03T07:41:48.885Z,101710.16
2018-07-03T07:44:17.826Z,101713.12
2018-07-03T07:46:46.949Z,101711.61
2018-07-03T07:49:16.341Z,101711.14
2018-07-03T07:51:46.210Z,101708.63
2018-07-03T07:54:15.419Z,101707.00
2018-07-03T07:56:44.172Z,101704.98
2018-07-03T07:59:13.486Z,101710.23
2018-07-03T08:01:42.853Z,101713.28
2018-07-03T08:04:11.637Z,101704.16
2018-07-03T08:06:40.475Z,101702.52
2018-07-03T08:09:10.304Z,101702.59
2018-07-03T08:11:39.459Z,101704.56
2018-07-03T08:14:09.333Z,101706.81
2018-07-03T08:16:38.081Z,101704.85
2018-07-03T08:19:07.266Z,101703.59
2018-07-03T08:21:36.380Z,101701.18
2018-07-03T08:24:05.432Z,101705.41
2018-07-03T08:26:34.676Z,101705.33
2018-07-03T08:29:04.077Z,101703.58
2018-07-03T08:31:33.176Z,101706.47
2018-07-03T08:34:02.875Z,101704.73
2018-07-03T08:36:31.687Z,101701.04
2018-07-03T08:39:00.595Z,101699.66
2018-07-03T08:41:29.914Z,101689.16
2018-07-03T08:43:59.016Z,101692.59
2018-07-03T08:46:28.415Z,101693.34
2018-07-03T08:48:57.518Z,101687.31
2018-07-03T08:51:26.601Z,101687.50
2018-07-03T08:53:55.987Z,101683.25
2018-07-03T08:56:25.104Z,101679.98
2018-07-03T08:58:54.550Z,101679.56
2018-07-03T09:01:23.613Z,101691.47
2018-07-03T09:03:53.093Z,101680.05
2018-07-03T09:06:22.320Z,101688.48
2018-07-03T09:08:51.384Z,101688.05
2018-07-03T09:11:20.694Z,101686.61
2018-07-03T09:13:50.131Z,101681.00
2018-07-03T09:16:19.218Z,101675.56
2018-07-03T09:18:48.062Z,101679.55
2018-07-03T09:21:17.183Z,101671.84
2018-07-03T09:23:46.048Z,101671.23
2018-07-03T09:26:14.979Z,101675.00
2018-07-03T09:28:44.023Z,101670.55
2018-07-03T09:31:13.187Z,101670.45
2018-07-03T09:33:42.545Z,101675.34
2018-07-03T09:36:11.379Z,101666.16
2018-07-03T09:38:40.175Z,101671.88
2018-07-03T09:41:09.286Z,101661.27
2018-07-03T09:43:38.202Z,101657.94
2018-07-03T09:46:07.840Z,101662.73
2018-07-03T09:48:36.931Z,101655.64
2018-07-03T09:51:06.101Z,101653.07
2018-07-03T09:53:35.525Z,101645.75
2018-07-03T09:56:04.331Z,101644.56
2018-07-03T09:58:33.564Z,101645.20
2018-07-03T10:01:06.791Z,101645.40
2018-07-03T10:03:35.613Z,101651.57
2018-07-03T10:06:04.932Z,101649.95
2018-07-03T10:08:34.328Z,101645.58
2018-07-03T10:11:03.141Z,101647.05
2018-07-03T10:13:32.840Z,101640.72
2018-07-03T10:16:01.603Z,101646.33
2018-07-03T10:18:30.354Z,101649.12
2018-07-03T10:20:59.765Z,101645.33
2018-07-03T10:23:29.105Z,101639.53
2018-07-03T10:25:58.235Z,101641.53
2018-07-03T10:28:27.635Z,101637.56
2018-07-03T10:30:56.410Z,101637.91
2018-07-03T10:33:25.695Z,101643.63
2018-07-03T10:35:54.741Z,101639.00
2018-07-03T10:38:24.460Z,101638.56
2018-07-03T10:40:53.267Z,101636.09
2018-07-03T10:43:22.440Z,101637.83
2018-07-03T10:45:51.229Z,101642.41
2018-07-03T10:48:20.400Z,101635.02
2018-07-03T10:50:49.713Z,101637.39
2018-07-03T10:53:18.594Z,101634.83
2018-07-03T10:55:47.435Z,101642.99
2018-07-03T10:58:16.242Z,101638.78
2018-07-03T11:00:45.647Z,101631.52
2018-07-03T11:03:14.413Z,101634.16
2018-07-03T11:05:43.266Z,101633.48
2018-07-03T11:08:12.787Z,101636.79
2018-07-03T11:10:41.902Z,101637.88
2018-07-03T11:13:11.245Z,101633.46
2018-07-03T11:15:40.068Z,101631.17
2018-07-03T11:18:09.204Z,101632.44
2018-07-03T11:20:38.855Z,101632.06
2018-07-03T11:23:08.161Z,101634.63
2018-07-03T11:25:37.606Z,101624.31
2018-07-03T11:28:06.751Z,101624.77
2018-07-03T11:30:36.164Z,101625.69
2018-07-03T11:33:05.211Z,101625.20
2018-07-03T11:35:34.369Z,101622.56
2018-07-03T11:38:03.209Z,101614.42
2018-07-03T11:40:32.093Z,101611.91
2018-07-03T11:43:01.287Z,101616.33
2018-07-03T11:45:30.152Z,101616.64
2018-07-03T11:47:59.590Z,101615.52
2018-07-03T11:50:28.406Z,101624.38
2018-07-03T11:52:57.497Z,101618.05
2018-07-03T11:55:26.483Z,101615.80
2018-07-03T11:57:55.608Z,101606.77
2018-07-03T12:00:24.814Z,101616.36
2018-07-03T12:02:54.003Z,101616.61
2018-07-03T12:05:23.081Z,101599.77
2018-07-03T12:07:52.223Z,101602.77
2018-07-03T12:10:21.035Z,101601.80
2018-07-03T12:12:50.784Z,101597.45
2018-07-03T12:15:19.623Z,101602.39
2018-07-03T12:17:48.455Z,101599.53
2018-07-03T12:20:17.303Z,101598.13
2018-07-03T12:22:46.219Z,101602.58
2018-07-03T12:25:15.043Z,101596.89
2018-07-03T12:27:44.121Z,101596.78
2018-07-03T12:30:13.828Z,101592.64
2018-07-03T12:32:43.210Z,101592.31
2018-07-03T12:35:12.746Z,101604.28
2018-07-03T12:37:42.013Z,101587.23
2018-07-03T12:40:11.114Z,101585.72
2018-07-03T12:42:40.159Z,101586.61
2018-07-03T12:45:09.358Z,101585.48
2018-07-03T12:47:38.483Z,101578.90
2018-07-03T12:50:07.323Z,101580.97
2018-07-03T12:52:36.553Z,101583.70
2018-07-03T12:55:05.437Z,101589.98
2018-07-03T12:57:34.858Z,101577.55
2018-07-03T13:00:04.088Z,101577.02
2018-07-03T13:02:33.239Z,101580.40
2018-07-03T13:05:02.127Z,101569.71
2018-07-03T13:07:31.584Z,101571.08
2018-07-03T13:10:00.468Z,101577.49
2018-07-03T13:12:29.310Z,101572.17
2018-07-03T13:14:58.535Z,101574.61
2018-07-03T13:17:27.600Z,101568.64
2018-07-03T13:19:56.616Z,101579.77
2018-07-03T13:22:25.497Z,101577.41
2018-07-03T13:24:54.619Z,101575.45
2018-07-03T13:27:23.699Z,101570.95
2018-07-03T13:29:53.094Z,101576.22
2018-07-03T13:32:22.268Z,101572.89
2018-07-03T13:34:51.268Z,101568.87
2018-07-03T13:37:20.109Z,101565.02
2018-07-03T13:39:49.225Z,101562.34
2018-07-03T13:42:18.083Z,101565.30
2018-07-03T13:44:46.921Z,101572.42
2018-07-03T13:47:16.292Z,101574.60
2018-07-03T13:49:45.113Z,101563.52
2018-07-03T13:52:13.959Z,101565.47
2018-07-03T13:54:43.087Z,101567.06
2018-07-03T13:57:12.193Z,101562.45
2018-07-03T13:59:41.373Z,101562.86
2018-07-03T14:02:10.503Z,101562.04
2018-07-03T14:04:39.335Z,101559.17
2018-07-03T14:07:08.309Z,101566.56
2018-07-03T14:09:37.347Z,101567.80
2018-07-03T14:12:06.210Z,101559.75
2018-07-03T14:14:35.384Z,101560.17
2018-07-03T14:17:04.881Z,101553.26
2018-07-03T14:19:33.986Z,101545.00
2018-07-03T14:22:02.953Z,101544.07
2018-07-03T14:24:31.959Z,101546.46
2018-07-03T14:27:01.155Z,101545.30
2018-07-03T14:29:30.504Z,101545.35
2018-07-03T14:31:59.912Z,101546.56
2018-07-03T14:34:29.006Z,101549.30
2018-07-03T14:36:58.562Z,101545.63
2018-07-03T14:39:27.653Z,101551.27
2018-07-03T14:41:57.046Z,101543.33
2018-07-03T14:44:26.329Z,101538.92
2018-07-03T14:46:55.537Z,101539.08
2018-07-03T14:49:24.721Z,101541.16
2018-07-03T14:51:53.564Z,101538.92
2018-07-03T14:54:22.445Z,101542.79
2018-07-03T14:56:52.134Z,101544.38
2018-07-03T14:59:21.157Z,101545.37
2018-07-03T15:01:49.977Z,101541.74
2018-07-03T15:04:18.844Z,101538.04
2018-07-03T15:06:47.972Z,101536.45
2018-07-03T15:09:18.632Z,101535.58
2018-07-03T15:11:47.914Z,101539.63
2018-07-03T15:14:17.106Z,101540.20
2018-07-03T15:16:46.117Z,101536.05
2018-07-03T15:19:20.389Z,101531.30
2018-07-03T15:21:49.822Z,101535.57
2018-07-03T15:24:19.008Z,101539.48
2018-07-03T15:26:47.920Z,101531.05
2018-07-03T15:29:16.917Z,101525.56
2018-07-03T15:31:46.074Z,101526.53
2018-07-03T15:34:15.025Z,101524.87
2018-07-03T15:36:44.148Z,101520.91
2018-07-03T15:39:14.482Z,101518.25
2018-07-03T15:41:43.709Z,101520.50
2018-07-03T15:44:23.827Z,101525.25
2018-07-03T15:46:54.071Z,101521.16
2018-07-03T15:49:23.174Z,101519.06
2018-07-03T15:51:52.045Z,101524.59
2018-07-03T15:54:21.065Z,101525.09
2018-07-03T15:56:51.519Z,101528.36
2018-07-03T15:59:20.771Z,101526.02
2018-07-03T16:01:49.757Z,101524.72
2018-07-03T16:06:30.970Z,101520.92
2018-07-03T16:09:13.313Z,101526.45
2018-07-03T16:11:42.222Z,101516.81
2018-07-03T16:14:11.654Z,101527.11
2018-07-03T16:16:41.524Z,101522.84
2018-07-03T16:19:15.656Z,101522.16
2018-07-03T16:21:44.568Z,101519.89
2018-07-03T16:24:13.923Z,101514.30
2018-07-03T16:26:42.962Z,101506.20
2018-07-03T16:29:13.437Z,101509.76
2018-07-03T16:31:42.950Z,101511.47
2018-07-03T16:34:12.204Z,101504.79
2018-07-03T16:36:41.544Z,101515.27
2018-07-03T16:39:12.617Z,101508.56
2018-07-03T16:41:41.852Z,101511.92
2018-07-03T16:44:11.324Z,101506.12
2018-07-03T16:46:40.578Z,101502.22
2018-07-03T16:49:09.987Z,101498.52
2018-07-03T16:51:39.510Z,101505.91
2018-07-03T16:54:09.020Z,101506.34
2018-07-03T16:56:38.559Z,101500.02
2018-07-03T16:59:07.839Z,101503.76
2018-07-03T17:01:37.261Z,101501.59
2018-07-03T17:04:06.593Z,101505.34
2018-07-03T17:06:35.929Z,101503.12
2018-07-03T17:09:06.705Z,101501.30
2018-07-03T17:11:35.720Z,101499.30
2018-07-03T17:14:06.350Z,101496.69
2018-07-03T17:16:36.594Z,101502.38
2018-07-03T17:19:11.449Z,101506.45
2018-07-03T17:21:41.031Z,101509.58
2018-07-03T17:24:10.055Z,101503.38
2018-07-03T17:26:39.266Z,101507.45
2018-07-03T17:29:08.979Z,101498.06
2018-07-03T17:31:37.841Z,101496.16
2018-07-03T17:34:09.054Z,101502.13
2018-07-03T17:36:38.295Z,101510.51
2018-07-03T17:39:14.885Z,101510.32
2018-07-03T17:41:55.359Z,101507.29
2018-07-03T17:44:34.898Z,101512.70
2018-07-03T17:47:04.067Z,101505.81
2018-07-03T17:49:33.378Z,101506.94
2018-07-03T17:52:02.289Z,101505.70
2018-07-03T17:54:31.518Z,101508.32
2018-07-03T17:57:00.417Z,101504.11
2018-07-03T17:59:29.617Z,101499.84
2018-07-03T18:01:58.759Z,101497.69
2018-07-03T18:04:27.839Z,101497.86
2018-07-03T18:06:57.126Z,101493.42
2018-07-03T18:09:25.942Z,101505.11
2018-07-03T18:11:54.792Z,101506.59
2018-07-03T18:14:23.706Z,101503.78
2018-07-03T18:16:53.055Z,101504.83
2018-07-03T18:19:27.238Z,101504.83
2018-07-03T18:21:56.033Z,101502.13
2018-07-03T18:24:24.930Z,101504.72
2018-07-03T18:26:53.774Z,101501.41
2018-07-03T18:29:23.548Z,101498.05
2018-07-03T18:31:52.958Z,101498.32
2018-07-03T18:34:21.953Z,101494.13
2018-07-03T18:36:50.987Z,101489.95
2018-07-03T18:39:20.300Z,101491.77
2018-07-03T18:41:49.120Z,101487.63
2018-07-03T18:44:17.899Z,101486.11
2018-07-03T18:46:47.066Z,101480.16
2018-07-03T18:49:15.802Z,101489.52
2018-07-03T18:51:45.123Z,101491.02
2018-07-03T18:54:15.048Z,101495.38
2018-07-03T18:56:43.848Z,101495.84
2018-07-03T18:59:13.013Z,101495.75
2018-07-03T19:01:42.067Z,101503.63
2018-07-03T19:04:10.943Z,101496.92
2018-07-03T19:06:39.998Z,101499.43
2018-07-03T19:09:09.319Z,101502.95
2018-07-03T19:11:38.329Z,101502.17
2018-07-03T19:14:07.336Z,101495.74
2018-07-03T19:16:36.520Z,101497.48
2018-07-03T19:19:05.619Z,101499.64
2018-07-03T19:21:34.613Z,101499.89
2018-07-03T19:24:03.441Z,101500.97
2018-07-03T19:26:32.326Z,101503.26
2018-07-03T19:29:02.084Z,101504.46
2018-07-03T19:31:31.210Z,101500.33
2018-07-03T19:34:00.581Z,101507.90
2018-07-03T19:36:30.166Z,101516.77
2018-07-03T19:38:59.061Z,101517.63
2018-07-03T19:41:28.106Z,101514.19
2018-07-03T19:43:57.394Z,101514.38
2018-07-03T19:46:26.854Z,101519.91
2018-07-03T19:48:55.946Z,101524.40
2018-07-03T19:51:25.284Z,101523.26
2018-07-03T19:53:54.273Z,101520.63
2018-07-03T19:56:23.413Z,101519.38
2018-07-03T19:58:52.340Z,101524.09
2018-07-03T20:01:21.120Z,101521.70
2018-07-03T20:03:49.952Z,101534.77
2018-07-03T20:06:19.098Z,101535.36
2018-07-03T20:08:48.310Z,101532.52
2018-07-03T20:11:17.460Z,101536.73
2018-07-03T20:13:46.367Z,101541.66
2018-07-03T20:16:15.227Z,101538.44
2018-07-03T20:18:44.467Z,101549.97
2018-07-03T20:21:13.508Z,101543.66
2018-07-03T20:23:42.304Z,101532.20
2018-07-03T20:26:11.572Z,101541.13
2018-07-03T20:28:40.619Z,101539.52
2018-07-03T20:31:09.460Z,101537.67
2018-07-03T20:33:38.291Z,101536.95
2018-07-03T20:36:08.040Z,101541.04
2018-07-03T20:38:36.897Z,101540.22
2018-07-03T20:41:11.992Z,101541.80
2018-07-03T20:43:42.129Z,101540.05
2018-07-03T20:46:11.815Z,101541.86
2018-07-03T20:48:40.969Z,101539.56
2018-07-03T20:51:09.806Z,101549.27
2018-07-03T20:53:38.602Z,101537.23
2018-07-03T20:56:07.607Z,101542.02
2018-07-03T20:58:36.371Z,101532.66
2018-07-03T21:01:05.458Z,101539.34
2018-07-03T21:03:34.550Z,101542.95
2018-07-03T21:06:03.404Z,101534.91
2018-07-03T21:08:32.213Z,101537.46
2018-07-03T21:11:00.980Z,101533.53
2018-07-03T21:13:29.736Z,101538.31
2018-07-03T21:15:59.108Z,101534.02
2018-07-03T21:18:27.855Z,101539.78
2018-07-03T21:20:57.058Z,101539.97
2018-07-03T21:23:25.846Z,101540.98
2018-07-03T21:25:55.179Z,101534.92
2018-07-03T21:28:24.074Z,101540.16
2018-07-03T21:30:53.632Z,101536.11
2018-07-03T21:33:22.725Z,101531.49
2018-07-03T21:35:51.532Z,101534.34
2018-07-03T21:38:20.940Z,101531.79
2018-07-03T21:40:50.024Z,101534.63
2018-07-03T21:43:18.784Z,101533.34
2018-07-03T21:45:47.785Z,101532.80
2018-07-03T21:48:17.722Z,101529.32
2018-07-03T21:50:46.777Z,101533.06
2018-07-03T21:53:15.806Z,101530.84
2018-07-03T21:55:45.168Z,101526.83
2018-07-03T21:58:14.238Z,101526.70
2018-07-03T22:00:43.389Z,101526.62
2018-07-03T22:03:12.811Z,101523.27
2018-07-03T22:05:41.951Z,101525.58
2018-07-03T22:08:10.744Z,101522.80
2018-07-03T22:10:39.830Z,101531.00
2018-07-03T22:13:08.592Z,101532.66
2018-07-03T22:15:37.443Z,101537.50
2018-07-03T22:18:06.726Z,101529.43
2018-07-03T22:20:35.759Z,101534.02
2018-07-03T22:23:05.438Z,101536.46
2018-07-03T22:25:34.280Z,101538.86
2018-07-03T22:28:03.666Z,101530.58
2018-07-03T22:30:32.943Z,101531.40
2018-07-03T22:33:04.069Z,101540.02
2018-07-03T22:35:33.085Z,101535.23
2018-07-03T22:38:02.831Z,101529.84
2018-07-03T22:40:31.587Z,101524.24
2018-07-03T22:43:04.558Z,101531.80
2018-07-03T22:45:33.614Z,101531.17
2018-07-03T22:48:02.622Z,101534.23
2018-07-03T22:50:31.762Z,101531.33
2018-07-03T22:53:00.600Z,101534.80
2018-07-03T22:55:29.734Z,101532.94
2018-07-03T22:57:58.894Z,101529.75
2018-07-03T23:00:27.618Z,101529.58
2018-07-03T23:02:56.695Z,101524.85
2018-07-03T23:05:25.829Z,101526.88
2018-07-03T23:07:55.213Z,101523.31
2018-07-03T23:10:23.926Z,101519.55
2018-07-03T23:12:53.442Z,101522.52
2018-07-03T23:15:22.818Z,101517.06
2018-07-03T23:17:51.899Z,101522.28
2018-07-03T23:20:21.128Z,101515.85
2018-07-03T23:22:49.881Z,101514.48
2018-07-03T23:25:18.996Z,101516.03
2018-07-03T23:27:48.079Z,101519.88
2018-07-03T23:30:17.168Z,101517.16
2018-07-03T23:32:46.630Z,101514.34
2018-07-03T23:35:15.363Z,101516.03
2018-07-03T23:37:44.472Z,101513.84
2018-07-03T23:40:13.503Z,101512.73
2018-07-03T23:42:42.554Z,101521.00
2018-07-03T23:45:11.564Z,101520.29
2018-07-03T23:47:51.876Z,101524.60
2018-07-03T23:50:31.971Z,101521.73
2018-07-03T23:53:11.614Z,101518.36
2018-07-03T23:55:51.476Z,101514.64
2018-07-03T23:58:31.405Z,101516.91
